投稿到民航资源网

外航一周空中运行事件综述(9.21-9.27)

 2015-09-28 来源:民航资源网 作者:罗石  [投稿排行榜]
2015-09-28 18:14:32

我来说两句(0) 分享

      本综述尽可能收集国外航空公司一周空中运行事件,并根据已有信息对事件综述,供各位民航工作者参考借鉴。

      9月21日

      伊朗Iran Airtour航空公司注册号EP-MDE的MD-82飞机(机龄24.8年),执行从马什哈德到大不里士(伊朗)的B9-900航班。当地时间12:11(世界协调时08:41)飞机在大不里士30左跑道安全着陆,掉头滑行时,前起落架偏出跑道道面致使飞机无法移动。乘客在跑道上下机,飞机随后被拖至停机坪。

      标签:跑道偏离

      美国航空公司注册号N833AW的空客A319-100飞机(机龄12.9年),执行从夏洛特到哈特福德(美国)的AA-1889航班。飞机爬升通过22000英尺高度时遭遇鸟击,风挡破裂,随后机组停止爬升并备降费城,大约35分钟后飞机安全着陆。

      航班换飞机执行,延误2小时15分钟后到达哈特福德。

      标签:飞机鸟击

      希腊奥林匹克航空公司注册号SX-OBA的DHC-8-400飞机(机龄6.4年),执行从利姆诺斯岛到雅典(希腊)的A3-267航班。飞机在利姆诺斯岛22左跑道加速起飞时遭遇鸟击,机组中断起飞并返回停机坪。

      经过检查后飞机再次起飞,延误90分钟后到达雅典。

      标签:飞机鸟击

      突尼斯航空公司注册号TS-IMN的空客A320-200飞机(机龄15.6年),执行从马赛(法国)到突尼斯的TU-929航班。飞机完成飞行后在突尼斯安全着陆。

      地面人员注意到飞机滑行时电气系统操作面板门打开,并且拖着一根电缆。有关部门对此事件展开调查。

      标签:机械故障

      9月22日

      达美航空公司注册号N668US的波音747-400飞机(机龄25.3年),执行从阿姆斯特丹(荷兰)到亚特兰大(美国)的DL-73航班。飞机在阿姆斯特丹24号跑道离场爬升时,机组报告由于低油压他们关闭了1号发动机(PW4056),并请求在6000英尺高度停止爬升。飞机爬升至10000英尺放油后返航阿姆斯特丹,离场约1小时后飞机在18右跑道安全着陆。

      后续航班被取消。

      标签:机械故障

      葡萄牙航空公司注册号CS-TTP的空客A319-100飞机(机龄15.7年),执行从布加勒斯特奥托佩尼机场(罗马尼亚)到里斯本(葡萄牙)的TP-1345航班。飞机在马赛(法国)东北偏东约110海里,高度37000英尺时,由于左发动机振动,机组决定备降马赛。大约25分钟后飞机在马赛安全着陆。

      标签:机械故障

      新加坡航空公司注册号9V-SWP的波音777-300飞机(机龄7.5年),执行从新加坡到法兰克福的SQ-326航班。飞机在新加坡西北约1400海里,飞越孟加拉湾上空32000英尺高度时,由于液压系统故障,机组决定返航新加坡。离场约6小时10分钟后在新加坡安全着陆。

      标签:液压系统故障

      美国航空公司注册号N9617R的MD-83飞机(机龄18.2年),执行从萨克拉门托到达拉斯沃斯堡机场(美国)的AA-1218航班。飞机离场爬升通过20000英尺高度时,由于燃油管堵塞,机组决定返航萨克拉门托。离场约1小时后飞机在萨克拉门托安全着陆。

      飞机经过维修后再次起飞,延误7小时15分钟后到达达拉斯。

      标签:机械故障

      美国快捷航空公司(Expressjet)注册号N855AS 的CRJ-200飞机,执行从亚特兰大到皮奥里亚(美国)的EV-4919航班。飞机从亚特兰大离场爬升时,在26000英尺高度停止爬升,随后机组报告燃油不平衡无法将燃油从一个油箱输送到其它油箱,并决定备降埃文斯维尔。随后飞机在04号跑道安全着陆,脱离跑道后在滑行道上停止,并请求应急服务部门检查是否燃油泄漏。应急服务部门检查飞机后称并无异常,随后飞机滑行至停机坪。

      后续航班被取消。

      标签:燃油系统故障

      9月23日

      美国航空公司注册号N786AN的波音777-200飞机(机龄15.5年),执行从布宜诺斯艾利斯(阿根廷)到纽约肯尼迪机场的AA-954航班。飞机在奥兰多东北偏东约210海里,高度41000英尺时,机组报告驾驶舱出现少量烟雾并伴有电路烧焦气味。机组决定备降奥兰多,大约40分钟后飞机安全着陆,经过应急服务部门检查后滑行至停机坪。

      航班换飞机执行,延误8小时后到达纽约。

      标签:驾驶舱烟雾

      9月24日

      英国洛根航空公司注册号G-LGNM的萨博340B飞机,执行从柯可沃尔到因弗内斯(英国)的BE-6938航班。飞机从柯克沃尔离场爬升后,机组关闭左侧发动机(CT7)并返航柯克沃尔,随后安全着陆。

      航班换飞机执行,延误3小时后到达因弗内斯。

      标签:机械故障

      俄罗斯雅库特航空公司注册号RA-89012的苏霍伊超级100型飞机(机龄2.8年),执行从Mirnyj到哈巴罗夫斯克(俄罗斯)的R3-542航班。飞机在哈巴罗夫斯克着陆时水平安定面出现故障。

      标签:机械故障

      9月25日

      俄罗斯洲际航空公司注册号VP-BPA的波音737-500飞机(机龄24.5年),执行从莫斯科多莫杰多沃机场到克拉斯诺达尔(俄罗斯)的UN-167航班。飞机得到在克拉斯诺达尔05中跑道着陆许可,但却在已经关闭的05右跑道着陆。无人受伤,乘客在跑道上下机并被送至航站楼。

      相关通告显示,事发时跑道关闭且天气状况良好。

      Related NOTAM:

      A2134/15 - FLW RWY AND TWY CLOSED DUE TO REPAIR WORKS:

      - RWY 05R/23L,

      - TWY C SEGMENT FROM TWY M TO TWY D,

      - TWY D, TWY E, TWY F, TWY G, TWY H. 28 MAY 13:20 2015 UNTIL 31 DEC 21:00 2015. CREATED: 28 MAY 13:27 2015

      Possibly related NOTAMs:

      A4163/15 - RWY 05C (REF AIP SUP 03/14): SALS PUT INTO OPR. APCH LGT LEN: 420M. LGT INTENSITY: LIL. 16 SEP 06:00 2015 UNTIL 28 DEC 04:00 2015. CREATED: 16 SEP 06:20 2015

      A4162/15 - RWY 05C (REF AIP SUP 03/14): THR LGT PUT INTO OPR - 2 GREEN COLOUR WBAR. 16 SEP 06:00 2015 UNTIL 28 DEC 04:00 2015. CREATED: 16 SEP 06:19 2015

      A4161/15 - RWY 05C (REF AIP SUP 03/14): PAPI PUT INTO OPR, LEFT 2 DEG 40 MIN, 358M FROM THR. 16 SEP 06:00 2015 UNTIL 28 DEC 04:00 2015. CREATED: 16 SEP 06:19 2015

      URKK 251300Z 07005MPS CAVOK 31/17 Q1014 R05C/CLRD70 NOSIG RMK QFE757

      URKK 251230Z 10004MPS 070V130 CAVOK 31/17 Q1014 R05C/CLRD70 NOSIG RMK QFE757

      标签:人为因素

      新西兰航空公司注册号ZK-OXB的空客A320-200飞机(机龄2.2年),执行从基督城到奥克兰(新西兰)的NZ-542航班。飞机从基督城离场爬升通过6000英尺高度时,机组发现一架红色无人机从近处通过。飞机继续爬升,最终在奥克兰安全着陆。

      标签:遭遇无人机

      巴西戈尔航空公司注册号PR-GXP的波音737-800飞机(机龄1.7年),执行从里约热内卢桑托斯杜蒙机场到贝洛奥里藏特(巴西)的G3-1668航班。当地时间19:10(世界协调时22:10)飞机在里约热内卢20左跑道离场滑行时,风向变化迫使管制员转换跑道。飞机在跑道掉头准备从02右跑道离场时冲出跑道边线,前起落架和左侧主起落架都陷入软地面。

      机场关闭了约2小时20分钟,直到飞机从跑道上移开。天气报文显示事发时天气良好。

      SBRJ 252300Z 34007KT CAVOK 25/21 Q1013

      SBRJ 252200Z 02004KT 9999 FEW025 BKN090 25/21 Q1014

      SBRJ 252100Z 18005KT 9000 FEW025 25/21 Q1013

      标签:冲出跑道

      9月26日

      英国奥尔德尼航空公司注册号G-NSEY的ERJ-195飞机(机龄1.3年),执行从格恩西岛(英国)到伦敦盖特威克机场的GR-604航班。飞机在格恩西岛09号跑道加速起飞时,左侧发动机吸入一只鸟迫使机组在高速阶段中断起飞。飞机安全减速后返回停机坪。

      标签:飞机鸟击

      9月27日

      西班牙伏林航空公司注册号EC-LZN的空客A320-200飞机(机龄1.7年),执行从苏黎世(瑞士)到巴塞罗那(西班牙)的VY-6243航班。飞机从苏黎世10号跑道离场爬升时,机组报告右侧发动机故障,在7000英尺高度停止爬升并返航苏黎世,离场约15分钟后飞机在苏黎世14号跑道安全着陆。

      标签:机械故障

    1荐闻榜

    更多文章和观点请访问罗石专题

    发表评论
    发表请先 登陆/注册

    严禁发布攻击他人、言语粗俗、涉及政治等违反规定的言论,违者法办!